TimeMST,TemperatureF,Dew PointF,Humidity,Sea Level PressureIn,VisibilityMPH,Wind Direction,Wind SpeedMPH,Gust SpeedMPH,PrecipitationIn,Events,Conditions,WindDirDegrees,DateUTC
12:56 AM,62.1,27.0,26,29.97,10.0,SW,6.9,-,N/A,,Clear,230,2011-10-18 07:56:00
1:56 AM,61.0,28.0,29,29.96,10.0,SSW,6.9,-,N/A,,Clear,210,2011-10-18 08:56:00
2:56 AM,61.0,28.9,30,29.96,10.0,SSW,6.9,-,N/A,,Clear,210,2011-10-18 09:56:00
3:56 AM,-9999,-9999,N/A,-9999,-9999.0,North,-9999.0,-,N/A,,Unknown,0,2011-10-18 10:56:00
4:00 AM,-9999,-9999,N/A,-9999,-9999.0,North,-9999.0,-,N/A,,Unknown,0,2011-10-18 11:00:00
4:56 AM,60.1,30.9,33,29.98,10.0,SSW,5.8,-,N/A,,Clear,210,2011-10-18 11:56:00
5:55 AM,60.8,30.2,31,30.17,10.0,SSW,4.6,-,N/A,,Clear,200,2011-10-18 12:55:00
6:55 AM,60.8,30.2,31,30.03,10.0,SSW,3.5,-,N/A,,Partly Cloudy,200,2011-10-18 13:55:00
7:55 AM,69.8,33.8,27,30.04,10.0,Calm,Calm,-,N/A,,Partly Cloudy,0,2011-10-18 14:55:00
8:55 AM,73.4,30.2,20,30.04,10.0,NE,5.8,-,N/A,,Partly Cloudy,50,2011-10-18 15:55:00
9:55 AM,75.2,28.4,18,30.03,10.0,East,5.8,-,N/A,,Partly Cloudy,80,2011-10-18 16:55:00
10:55 AM,78.8,28.4,16,30.01,10.0,ENE,9.2,-,N/A,,Partly Cloudy,70,2011-10-18 17:55:00
11:55 AM,80.6,28.4,15,30.00,10.0,SE,5.8,-,N/A,,Partly Cloudy,140,2011-10-18 18:55:00
12:55 PM,82.4,26.6,13,29.96,10.0,NE,8.1,-,N/A,,Partly Cloudy,50,2011-10-18 19:55:00
1:55 PM,82.4,26.6,13,29.94,10.0,Variable,4.6,-,N/A,,Clear,0,2011-10-18 20:55:00
2:55 PM,84.2,26.6,12,29.92,10.0,Variable,4.6,-,N/A,,Clear,0,2011-10-18 21:55:00
3:55 PM,82.4,24.8,12,29.92,10.0,Calm,Calm,-,N/A,,Clear,0,2011-10-18 22:55:00
4:55 PM,82.4,26.6,13,29.91,10.0,East,4.6,-,N/A,,Clear,100,2011-10-18 23:55:00
5:55 PM,75.2,24.8,15,29.94,10.0,NE,5.8,-,N/A,,Partly Cloudy,50,2011-10-19 00:55:00
6:55 PM,73.4,26.6,18,29.96,10.0,Calm,Calm,-,N/A,,Clear,0,2011-10-19 01:55:00
7:55 PM,68.0,26.6,21,29.96,10.0,Calm,Calm,-,N/A,,Clear,0,2011-10-19 02:55:00
8:55 PM,69.8,26.6,20,29.95,10.0,Calm,Calm,-,N/A,,Clear,0,2011-10-19 03:55:00
9:55 PM,66.2,24.8,21,29.95,10.0,Calm,Calm,-,N/A,,Clear,0,2011-10-19 04:55:00
10:55 PM,64.4,24.8,22,29.95,10.0,Calm,Calm,-,N/A,,Clear,0,2011-10-19 05:55:00
11:56 PM,61.0,25.0,25,29.94,10.0,SSE,8.1,-,N/A,,Clear,160,2011-10-19 06:56:00